Terminal Aerodrome Forecast
Issued by NWS Houston/Galveston, TX

Home | Current Version | Previous Version | Text Only | Print | Product List | Glossary On
Versions: 1 2 3 4 5 6 7 8 9 10 11 12 13 14 15 16 17 18 19 20 21 22 23 24 25 26 27 28 29 30 31 32 33 34 35 36 37 38
000
FTUS44 KHGX 272040 AAA
TAFGLS
TAF AMD
KGLS 272040Z 2721/2818 09011KT P6SM VCSH BKN025 BKN080
     FM272300 12010KT P6SM FEW025 BKN250
     FM280400 10011KT P6SM VCSH SCT025 BKN250
     FM281600 11010KT P6SM SCT035 BKN250=

USA.gov is the U.S. government's official web portal to all federal, state and local government web resources and services.